createdAt,value
2019-03-01T00:02:27.061Z,63.20
2019-03-01T00:05:02.986Z,63.50
2019-03-01T00:08:07.190Z,64.00
2019-03-01T00:10:49.179Z,64.50
2019-03-01T00:13:35.311Z,65.00
2019-03-01T00:16:24.824Z,65.40
2019-03-01T00:19:28.659Z,65.00
2019-03-01T00:22:04.934Z,64.70
2019-03-01T00:24:50.332Z,64.50
2019-03-01T00:27:23.385Z,63.80
2019-03-01T00:30:17.239Z,64.10
2019-03-01T00:32:52.629Z,64.60
2019-03-01T00:35:56.446Z,64.90
2019-03-01T00:38:38.911Z,65.10
2019-03-01T00:41:26.992Z,64.60
2019-03-01T00:44:01.178Z,64.90
2019-03-01T00:46:27.389Z,65.30
2019-03-01T00:48:53.605Z,65.10
2019-03-01T00:51:20.923Z,65.20
2019-03-01T00:53:47.140Z,65.30
2019-03-01T00:56:13.367Z,65.60
2019-03-01T00:58:39.614Z,65.90
2019-03-01T01:01:05.838Z,65.80
2019-03-01T01:03:32.053Z,66.40
2019-03-01T01:05:58.357Z,66.80
2019-03-01T01:08:24.579Z,66.50
2019-03-01T01:10:50.824Z,66.30
2019-03-01T01:13:17.853Z,67.90
2019-03-01T01:15:44.183Z,68.10
2019-03-01T01:18:10.522Z,68.00
2019-03-01T01:20:36.941Z,68.10
2019-03-01T01:23:03.181Z,68.00
2019-03-01T01:25:29.509Z,68.10
2019-03-01T01:27:55.745Z,67.10
2019-03-01T01:30:21.973Z,66.50
2019-03-01T01:32:48.301Z,65.30
2019-03-01T01:35:14.729Z,64.60
2019-03-01T01:37:41.031Z,63.90
2019-03-01T01:40:09.362Z,63.70
2019-03-01T01:42:35.633Z,63.70
2019-03-01T01:45:04.246Z,63.40
2019-03-01T01:49:55.005Z,63.30
2019-03-01T01:52:21.253Z,64.30
2019-03-01T01:54:47.573Z,64.00
2019-03-01T01:57:13.829Z,64.50
2019-03-01T01:59:40.041Z,64.10
2019-03-01T02:02:06.361Z,64.80
2019-03-01T02:04:32.690Z,64.70
2019-03-01T02:06:59.026Z,63.90
2019-03-01T02:09:25.909Z,64.00
2019-03-01T02:11:52.352Z,64.70
2019-03-01T02:14:19.662Z,64.10
2019-03-01T02:16:46.981Z,64.20
2019-03-01T02:19:13.236Z,64.00
2019-03-01T02:21:39.566Z,64.20
2019-03-01T02:24:05.799Z,64.60
2019-03-01T02:26:32.121Z,64.40
2019-03-01T02:28:58.435Z,65.40
2019-03-01T02:31:24.753Z,65.20
2019-03-01T02:33:51.010Z,64.30
2019-03-01T02:36:17.236Z,63.30
2019-03-01T02:38:43.470Z,63.50
2019-03-01T02:41:09.926Z,63.00
2019-03-01T02:43:36.249Z,63.60
2019-03-01T02:46:02.683Z,64.00
2019-03-01T02:48:29.111Z,64.60
2019-03-01T02:50:55.416Z,65.10
2019-03-01T02:53:21.746Z,65.80
2019-03-01T02:55:48.063Z,66.70
2019-03-01T02:58:14.287Z,67.30
2019-03-01T03:00:40.612Z,67.70
2019-03-01T03:03:07.073Z,68.20
2019-03-01T03:05:35.268Z,67.50
2019-03-01T03:08:03.365Z,67.70
2019-03-01T03:10:29.581Z,66.80
2019-03-01T03:12:59.105Z,66.20
2019-03-01T03:15:27.265Z,66.30
2019-03-01T03:17:53.467Z,66.10
2019-03-01T03:20:19.677Z,66.50
2019-03-01T03:22:45.899Z,66.50
2019-03-01T03:25:13.151Z,67.00
2019-03-01T03:27:39.466Z,67.50
2019-03-01T03:30:14.221Z,67.10
2019-03-01T03:32:40.811Z,66.20
2019-03-01T03:35:07.332Z,65.40
2019-03-01T03:37:33.663Z,65.30
2019-03-01T03:39:59.874Z,65.00
2019-03-01T03:42:26.095Z,65.40
2019-03-01T03:44:52.426Z,65.80
2019-03-01T03:47:18.658Z,66.10
2019-03-01T03:49:45.015Z,66.70
2019-03-01T03:52:11.293Z,67.00
2019-03-01T03:54:37.514Z,67.50
2019-03-01T03:57:03.916Z,67.70
2019-03-01T03:59:30.153Z,68.10
2019-03-01T04:01:56.368Z,67.70
2019-03-01T04:04:22.787Z,68.00
2019-03-01T04:06:49.206Z,68.20
2019-03-01T04:09:15.413Z,67.80
2019-03-01T04:11:41.630Z,67.60
2019-03-01T04:14:07.873Z,67.40
2019-03-01T04:16:34.195Z,67.10
2019-03-01T04:19:00.417Z,66.50
2019-03-01T04:21:26.757Z,66.20
2019-03-01T04:23:53.070Z,66.60
2019-03-01T04:26:19.381Z,66.80
2019-03-01T04:28:45.624Z,66.20
2019-03-01T04:31:11.934Z,66.20
2019-03-01T04:33:38.256Z,66.40
2019-03-01T04:36:04.618Z,66.60
2019-03-01T04:38:30.945Z,66.80
2019-03-01T04:40:57.164Z,67.00
2019-03-01T04:43:23.405Z,67.20
2019-03-01T04:45:49.614Z,68.30
2019-03-01T04:48:15.848Z,68.40
2019-03-01T04:50:42.188Z,68.30
2019-03-01T04:53:08.462Z,68.50
2019-03-01T04:55:34.737Z,68.70
2019-03-01T04:58:00.986Z,69.10
2019-03-01T05:00:27.302Z,69.20
2019-03-01T05:02:53.618Z,69.60
2019-03-01T05:05:20.073Z,70.00
2019-03-01T05:07:46.477Z,70.20
2019-03-01T05:10:14.209Z,70.10
2019-03-01T05:12:40.649Z,70.20
2019-03-01T05:15:10.056Z,70.00
2019-03-01T05:17:36.371Z,69.90
2019-03-01T05:20:04.006Z,69.70
2019-03-01T05:22:31.212Z,67.70
2019-03-01T05:24:57.422Z,66.30
2019-03-01T05:27:23.645Z,65.50
2019-03-01T05:29:49.958Z,65.00
2019-03-01T05:32:16.177Z,64.70
2019-03-01T05:34:42.417Z,65.00
2019-03-01T05:37:08.731Z,65.40
2019-03-01T05:39:35.037Z,65.40
2019-03-01T05:42:01.269Z,66.20
2019-03-01T05:44:27.587Z,67.20
2019-03-01T05:46:53.798Z,66.80
2019-03-01T05:49:20.042Z,67.00
2019-03-01T05:51:46.260Z,65.90
2019-03-01T05:54:12.478Z,65.90
2019-03-01T05:56:38.730Z,64.40
2019-03-01T05:59:11.758Z,64.60
2019-03-01T06:01:47.827Z,65.30
2019-03-01T06:04:17.740Z,66.50
2019-03-01T06:07:04.740Z,67.10
2019-03-01T06:09:58.641Z,67.60
2019-03-01T06:12:46.955Z,67.10
2019-03-01T06:15:29.276Z,66.20
2019-03-01T06:18:05.565Z,65.90
2019-03-01T06:20:44.613Z,65.10
2019-03-01T06:23:20.444Z,65.30
2019-03-01T06:26:12.139Z,65.30
2019-03-01T06:28:48.017Z,65.30
2019-03-01T06:31:26.813Z,65.20
2019-03-01T06:34:15.025Z,65.10
2019-03-01T06:37:00.257Z,65.20
2019-03-01T06:39:51.942Z,65.40
2019-03-01T06:42:49.529Z,65.40
2019-03-01T06:45:19.594Z,65.20
2019-03-01T06:47:48.957Z,65.60
2019-03-01T06:50:17.665Z,65.60
2019-03-01T06:52:44.073Z,65.70
2019-03-01T06:55:26.448Z,65.60
2019-03-01T06:57:52.682Z,65.60
2019-03-01T07:00:18.993Z,65.60
2019-03-01T07:02:47.109Z,65.50
2019-03-01T07:05:13.361Z,65.30
2019-03-01T07:07:39.601Z,65.30
2019-03-01T07:10:07.213Z,65.00
2019-03-01T07:12:33.449Z,64.70
2019-03-01T07:14:59.665Z,64.80
2019-03-01T07:17:25.891Z,64.30
2019-03-01T07:19:52.133Z,63.90
2019-03-01T07:22:18.436Z,63.80
2019-03-01T07:24:44.649Z,63.70
2019-03-01T07:27:12.324Z,62.50
2019-03-01T07:29:38.786Z,61.50
2019-03-01T07:32:04.997Z,61.20
2019-03-01T07:34:31.319Z,60.80
2019-03-01T07:36:57.533Z,60.30
2019-03-01T07:39:23.749Z,60.00
2019-03-01T07:41:50.058Z,59.60
2019-03-01T07:44:16.381Z,59.50
2019-03-01T07:46:52.332Z,59.30
2019-03-01T07:49:10.836Z,58.60
2019-03-01T07:51:37.065Z,58.10
2019-03-01T07:54:03.358Z,57.40
2019-03-01T07:56:29.591Z,57.30
2019-03-01T07:58:57.540Z,57.20
2019-03-01T08:01:25.662Z,57.20
2019-03-01T08:03:53.193Z,57.20
2019-03-01T08:06:19.510Z,57.00
2019-03-01T08:08:45.725Z,57.10
2019-03-01T08:11:11.962Z,57.40
2019-03-01T08:13:38.167Z,57.30
2019-03-01T08:16:04.492Z,57.20
2019-03-01T08:18:30.802Z,56.50
2019-03-01T08:20:57.124Z,56.70
2019-03-01T08:23:23.340Z,56.50
2019-03-01T08:25:49.673Z,56.00
2019-03-01T08:28:18.501Z,55.80
2019-03-01T08:30:45.713Z,54.90
2019-03-01T08:33:12.151Z,54.80
2019-03-01T08:35:38.363Z,54.60
2019-03-01T08:38:04.671Z,54.40
2019-03-01T08:40:30.893Z,53.90
2019-03-01T08:42:57.199Z,53.50
2019-03-01T08:45:23.430Z,53.90
2019-03-01T08:47:49.745Z,53.90
2019-03-01T08:50:16.257Z,54.20
2019-03-01T08:52:43.582Z,53.30
2019-03-01T08:55:15.738Z,52.60
2019-03-01T08:57:44.485Z,52.50
2019-03-01T09:00:13.777Z,52.40
2019-03-01T09:02:41.046Z,52.20
2019-03-01T09:05:09.928Z,52.70
2019-03-01T09:07:36.257Z,51.70
2019-03-01T09:10:05.990Z,51.80
2019-03-01T09:12:32.295Z,51.50
2019-03-01T09:14:58.513Z,51.00
2019-03-01T09:17:24.761Z,51.30
2019-03-01T09:19:50.981Z,50.90
2019-03-01T09:22:17.204Z,50.20
2019-03-01T09:24:43.430Z,50.00
2019-03-01T09:27:09.635Z,51.10
2019-03-01T09:29:41.660Z,49.60
2019-03-01T09:32:04.061Z,48.70
2019-03-01T09:34:32.206Z,48.10
2019-03-01T09:36:58.505Z,47.70
2019-03-01T09:39:24.736Z,47.30
2019-03-01T09:41:50.953Z,47.30
2019-03-01T09:44:18.262Z,46.00
2019-03-01T09:46:44.501Z,45.40
2019-03-01T09:49:10.722Z,45.10
2019-03-01T09:51:38.040Z,44.80
2019-03-01T09:54:06.478Z,44.10
2019-03-01T09:56:32.369Z,43.20
2019-03-01T09:58:58.690Z,42.80
2019-03-01T10:01:24.909Z,42.60
2019-03-01T10:06:11.109Z,42.20
2019-03-01T10:08:37.361Z,41.10
2019-03-01T10:11:03.670Z,41.60
2019-03-01T10:13:30.447Z,41.00
2019-03-01T10:15:56.826Z,40.10
2019-03-01T10:18:23.049Z,39.90
2019-03-01T10:20:49.276Z,40.30
2019-03-01T10:23:15.537Z,39.10
2019-03-01T10:25:41.845Z,41.50
2019-03-01T10:28:08.169Z,40.40
2019-03-01T10:30:34.397Z,39.50
2019-03-01T10:33:00.681Z,38.70
2019-03-01T10:35:26.905Z,39.10
2019-03-01T10:37:53.786Z,38.50
2019-03-01T10:40:25.701Z,38.50
2019-03-01T10:42:51.913Z,38.10
2019-03-01T10:45:23.741Z,37.60
2019-03-01T10:47:49.957Z,37.50
2019-03-01T10:50:16.270Z,37.20
2019-03-01T10:52:42.491Z,37.10
2019-03-01T10:55:11.226Z,39.40
2019-03-01T10:57:37.546Z,38.70
2019-03-01T11:00:18.999Z,37.80
2019-03-01T11:02:45.405Z,38.50
2019-03-01T11:05:11.693Z,37.40
2019-03-01T11:07:37.933Z,37.10
2019-03-01T11:10:11.177Z,39.10
2019-03-01T11:12:37.388Z,36.90
2019-03-01T11:15:06.618Z,36.30
2019-03-01T11:17:32.925Z,35.40
2019-03-01T11:19:59.240Z,36.60
2019-03-01T11:22:25.485Z,39.00
2019-03-01T11:24:51.697Z,38.50
2019-03-01T11:27:17.909Z,36.00
2019-03-01T11:29:44.137Z,35.40
2019-03-01T11:32:10.365Z,36.60
2019-03-01T11:34:36.581Z,37.00
2019-03-01T11:37:03.869Z,36.50
2019-03-01T11:39:30.114Z,38.30
2019-03-01T11:41:56.389Z,35.90
2019-03-01T11:44:22.622Z,35.10
2019-03-01T11:46:48.931Z,35.20
2019-03-01T11:49:15.250Z,35.80
2019-03-01T11:51:41.489Z,35.70
2019-03-01T11:54:07.697Z,35.80
2019-03-01T11:56:33.910Z,36.60
2019-03-01T11:59:00.129Z,36.20
2019-03-01T12:01:26.346Z,36.00
2019-03-01T12:03:52.554Z,36.30
2019-03-01T12:06:18.781Z,36.50
2019-03-01T12:08:45.165Z,37.00
2019-03-01T12:11:11.485Z,37.50
2019-03-01T12:13:37.741Z,37.10
2019-03-01T12:16:03.957Z,37.40
2019-03-01T12:18:30.169Z,37.40
2019-03-01T12:20:56.399Z,39.10
2019-03-01T12:23:22.613Z,36.90
2019-03-01T12:25:48.826Z,35.30
2019-03-01T12:28:15.069Z,35.50
2019-03-01T12:30:41.281Z,37.60
2019-03-01T12:33:07.501Z,37.90
2019-03-01T12:35:33.725Z,38.30
2019-03-01T12:37:59.937Z,35.50
2019-03-01T12:40:30.153Z,35.00
2019-03-01T12:42:56.473Z,35.40
2019-03-01T12:45:22.692Z,35.60
2019-03-01T12:47:49.897Z,36.20
2019-03-01T12:50:16.226Z,36.10
2019-03-01T12:52:42.629Z,36.20
2019-03-01T12:55:12.392Z,34.50
2019-03-01T12:57:39.777Z,34.90
2019-03-01T13:00:12.615Z,34.60
2019-03-01T13:02:38.826Z,34.80
2019-03-01T13:05:07.754Z,35.00
2019-03-01T13:07:34.169Z,35.00
2019-03-01T13:10:03.380Z,34.90
2019-03-01T13:12:28.968Z,34.90
2019-03-01T13:14:55.169Z,36.10
2019-03-01T13:17:21.382Z,35.50
2019-03-01T13:19:47.615Z,34.70
2019-03-01T13:22:13.818Z,34.50
2019-03-01T13:24:40.664Z,35.80
2019-03-01T13:27:06.957Z,37.50
2019-03-01T13:29:33.169Z,37.20
2019-03-01T13:31:59.493Z,37.20
2019-03-01T13:34:26.750Z,37.80
2019-03-01T13:36:53.145Z,34.70
2019-03-01T13:39:20.699Z,34.20
2019-03-01T13:41:48.174Z,34.20
2019-03-01T13:44:14.581Z,36.20
2019-03-01T13:46:40.897Z,35.80
2019-03-01T13:49:07.229Z,37.20
2019-03-01T13:51:33.437Z,38.30
2019-03-01T13:53:59.658Z,37.70
2019-03-01T13:56:25.907Z,38.30
2019-03-01T13:58:52.229Z,36.00
2019-03-01T14:01:18.538Z,35.50
2019-03-01T14:03:44.861Z,36.00
2019-03-01T14:06:11.069Z,35.00
2019-03-01T14:08:37.544Z,38.30
2019-03-01T14:11:23.824Z,38.40
2019-03-01T14:13:51.138Z,37.30
2019-03-01T14:16:20.555Z,35.30
2019-03-01T14:18:46.314Z,34.40
2019-03-01T14:21:12.624Z,33.90
2019-03-01T14:23:38.837Z,33.10
2019-03-01T14:26:05.173Z,34.40
2019-03-01T14:28:31.389Z,36.10
2019-03-01T14:30:57.603Z,36.70
2019-03-01T14:33:23.824Z,38.00
2019-03-01T14:35:50.031Z,36.90
2019-03-01T14:38:16.249Z,34.90
2019-03-01T14:40:42.499Z,35.10
2019-03-01T14:43:08.805Z,36.60
2019-03-01T14:45:35.363Z,35.10
2019-03-01T14:48:01.602Z,36.30
2019-03-01T14:50:29.816Z,38.10
2019-03-01T14:52:58.741Z,38.10
2019-03-01T14:55:38.038Z,38.70
2019-03-01T14:58:14.134Z,37.10
2019-03-01T15:00:50.810Z,39.40
2019-03-01T15:03:33.037Z,37.30
2019-03-01T15:05:59.486Z,35.50
2019-03-01T15:08:25.798Z,38.10
2019-03-01T15:10:52.201Z,39.30
2019-03-01T15:13:18.621Z,39.30
2019-03-01T15:15:44.898Z,37.70
2019-03-01T15:18:11.110Z,39.40
2019-03-01T15:20:37.439Z,37.90
2019-03-01T15:23:03.870Z,38.30
2019-03-01T15:25:30.178Z,37.50
2019-03-01T15:27:56.491Z,39.30
2019-03-01T15:30:23.225Z,40.30
2019-03-01T15:32:49.623Z,37.50
2019-03-01T15:35:15.857Z,38.90
2019-03-01T15:37:42.061Z,39.30
2019-03-01T15:40:10.185Z,38.00
2019-03-01T15:42:36.377Z,40.30
2019-03-01T15:45:06.408Z,41.10
2019-03-01T15:47:32.686Z,39.40
2019-03-01T15:49:58.908Z,39.20
2019-03-01T15:52:25.137Z,38.80
2019-03-01T15:54:51.458Z,39.00
2019-03-01T15:57:18.985Z,39.30
2019-03-01T15:59:47.745Z,40.00
2019-03-01T16:02:14.017Z,39.70
2019-03-01T16:04:41.934Z,38.90
2019-03-01T16:07:08.385Z,38.60
2019-03-01T16:09:34.701Z,38.60
2019-03-01T16:12:00.945Z,39.10
2019-03-01T16:14:27.166Z,39.20
2019-03-01T16:16:54.385Z,39.60
2019-03-01T16:19:20.613Z,39.70
2019-03-01T16:21:46.812Z,39.30
2019-03-01T16:24:13.050Z,39.00
2019-03-01T16:26:39.292Z,38.70
2019-03-01T16:29:07.383Z,39.60
2019-03-01T16:31:33.645Z,39.80
2019-03-01T16:34:04.284Z,40.30
2019-03-01T16:36:30.365Z,40.20
2019-03-01T16:38:56.602Z,39.90
2019-03-01T16:41:22.954Z,40.70
2019-03-01T16:43:49.166Z,40.90
2019-03-01T16:46:16.481Z,40.80
2019-03-01T16:48:42.774Z,41.70
2019-03-01T16:51:10.222Z,40.70
2019-03-01T16:53:40.166Z,40.40
2019-03-01T16:56:04.832Z,40.80
2019-03-01T16:58:31.045Z,41.00
2019-03-01T17:00:57.265Z,41.20
2019-03-01T17:03:24.641Z,41.60
2019-03-01T17:05:50.869Z,43.00
2019-03-01T17:08:17.093Z,43.50
2019-03-01T17:10:43.325Z,44.00
2019-03-01T17:13:10.635Z,44.70
2019-03-01T17:15:36.852Z,45.20
2019-03-01T17:18:03.069Z,45.10
2019-03-01T17:20:29.368Z,44.80
2019-03-01T17:22:55.681Z,45.30
2019-03-01T17:25:23.498Z,45.60
2019-03-01T17:27:50.015Z,45.90
2019-03-01T17:30:22.709Z,45.70
2019-03-01T17:32:49.029Z,46.00
2019-03-01T17:35:15.345Z,46.00
2019-03-01T17:37:41.805Z,46.80
2019-03-01T17:40:10.813Z,46.90
2019-03-01T17:42:37.030Z,46.80
2019-03-01T17:45:06.457Z,47.30
2019-03-01T17:47:32.669Z,47.60
2019-03-01T17:49:58.881Z,48.20
2019-03-01T17:52:25.197Z,48.70
2019-03-01T17:54:51.409Z,48.70
2019-03-01T17:57:17.616Z,48.70
2019-03-01T17:59:44.694Z,48.40
2019-03-01T18:02:12.182Z,48.90
2019-03-01T18:04:40.121Z,49.60
2019-03-01T18:07:06.362Z,49.70
2019-03-01T18:09:32.565Z,49.80
2019-03-01T18:11:58.775Z,50.20
2019-03-01T18:14:25.022Z,49.90
2019-03-01T18:16:51.317Z,50.20
2019-03-01T18:19:17.533Z,49.80
2019-03-01T18:21:46.324Z,50.40
2019-03-01T18:24:14.334Z,50.30
2019-03-01T18:26:40.960Z,50.40
2019-03-01T18:29:08.380Z,50.70
2019-03-01T18:31:35.617Z,50.70
2019-03-01T18:34:02.918Z,50.70
2019-03-01T18:36:31.499Z,50.40
2019-03-01T18:38:57.281Z,50.30
2019-03-01T18:41:24.116Z,51.20
2019-03-01T18:43:51.641Z,51.10
2019-03-01T18:46:20.432Z,50.80
2019-03-01T18:48:48.713Z,51.30
2019-03-01T18:51:15.035Z,51.80
2019-03-01T18:53:41.341Z,52.40
2019-03-01T18:56:07.724Z,53.80
2019-03-01T18:58:33.968Z,53.00
2019-03-01T19:01:00.196Z,53.40
2019-03-01T19:03:26.556Z,53.80
2019-03-01T19:05:52.797Z,57.20
2019-03-01T19:08:19.013Z,58.70
2019-03-01T19:10:53.949Z,59.60
2019-03-01T19:13:14.473Z,60.10
2019-03-01T19:15:40.694Z,61.30
2019-03-01T19:18:06.911Z,61.80
2019-03-01T19:20:45.365Z,62.50
2019-03-01T19:23:11.737Z,63.10
2019-03-01T19:25:38.193Z,63.20
2019-03-01T19:28:04.519Z,63.00
2019-03-01T19:30:30.731Z,62.20
2019-03-01T19:32:58.863Z,62.90
2019-03-01T19:35:29.802Z,63.70
2019-03-01T19:37:53.034Z,62.60
2019-03-01T19:40:20.497Z,63.20
2019-03-01T19:42:46.956Z,64.00
2019-03-01T19:45:15.213Z,65.40
2019-03-01T19:47:41.397Z,65.10
2019-03-01T19:50:16.662Z,65.40
2019-03-01T19:52:43.483Z,65.90
2019-03-01T19:55:12.634Z,66.30
2019-03-01T19:57:39.102Z,66.50
2019-03-01T20:00:08.660Z,66.80
2019-03-01T20:02:34.985Z,66.90
2019-03-01T20:05:01.229Z,66.90
2019-03-01T20:07:27.535Z,67.00
2019-03-01T20:09:53.930Z,66.80
2019-03-01T20:12:20.169Z,67.40
2019-03-01T20:14:46.437Z,67.70
2019-03-01T20:17:12.746Z,66.80
2019-03-01T20:19:38.977Z,66.30
2019-03-01T20:22:05.309Z,66.50
2019-03-01T20:24:31.633Z,66.80
2019-03-01T20:26:59.881Z,67.40
2019-03-01T20:29:25.983Z,67.60
2019-03-01T20:31:52.301Z,66.90
2019-03-01T20:34:18.628Z,67.00
2019-03-01T20:36:44.936Z,66.80
2019-03-01T20:39:11.730Z,67.10
2019-03-01T20:41:46.149Z,67.70
2019-03-01T20:44:08.093Z,68.50
2019-03-01T20:46:34.410Z,68.60
2019-03-01T20:49:03.686Z,68.60
2019-03-01T20:51:28.731Z,68.60
2019-03-01T20:53:55.157Z,68.50
2019-03-01T20:56:21.482Z,68.50
2019-03-01T20:58:47.699Z,68.60
2019-03-01T21:01:14.485Z,68.70
2019-03-01T21:03:40.937Z,68.70
2019-03-01T21:06:07.380Z,68.30
2019-03-01T21:08:33.793Z,67.90
2019-03-01T21:11:00.041Z,67.90
2019-03-01T21:13:26.258Z,68.00
2019-03-01T21:15:53.264Z,67.80
2019-03-01T21:18:19.754Z,67.60
2019-03-01T21:20:46.085Z,67.50
2019-03-01T21:23:15.136Z,67.60
2019-03-01T21:25:40.819Z,67.50
2019-03-01T21:28:07.289Z,67.50
2019-03-01T21:30:33.813Z,67.20
2019-03-01T21:33:00.066Z,66.80
2019-03-01T21:35:26.278Z,66.60
2019-03-01T21:37:52.804Z,67.20
2019-03-01T21:40:19.066Z,67.50
2019-03-01T21:42:45.292Z,67.90
2019-03-01T21:45:17.776Z,68.00
2019-03-01T21:47:44.625Z,68.20
2019-03-01T21:50:11.211Z,67.80
2019-03-01T21:52:37.541Z,67.30
2019-03-01T21:55:09.177Z,67.30
2019-03-01T21:57:35.521Z,67.20
2019-03-01T22:00:03.854Z,67.30
2019-03-01T22:02:32.121Z,67.70
2019-03-01T22:04:58.377Z,67.70
2019-03-01T22:07:24.608Z,67.50
2019-03-01T22:09:50.842Z,67.70
2019-03-01T22:12:17.066Z,68.30
2019-03-01T22:14:45.697Z,68.20
2019-03-01T22:17:13.523Z,68.10
2019-03-01T22:19:39.365Z,67.70
2019-03-01T22:22:07.358Z,67.90
2019-03-01T22:24:34.253Z,68.40
2019-03-01T22:27:00.584Z,68.30
2019-03-01T22:29:26.801Z,67.80
2019-03-01T22:31:53.052Z,68.20
2019-03-01T22:34:19.265Z,68.00
2019-03-01T22:36:45.491Z,67.80
2019-03-01T22:39:13.664Z,67.80
2019-03-01T22:41:40.455Z,67.90
2019-03-01T22:44:06.934Z,69.20
2019-03-01T22:46:33.189Z,69.10
2019-03-01T22:48:59.425Z,69.50
2019-03-01T22:51:25.767Z,69.30
2019-03-01T22:53:52.089Z,69.60
2019-03-01T22:56:18.397Z,69.80
2019-03-01T22:58:44.628Z,69.80
2019-03-01T23:01:12.224Z,69.70
2019-03-01T23:03:38.781Z,69.70
2019-03-01T23:06:04.992Z,69.80
2019-03-01T23:08:31.706Z,69.20
2019-03-01T23:10:59.321Z,68.90
2019-03-01T23:13:25.638Z,68.60
2019-03-01T23:15:51.885Z,68.30
2019-03-01T23:18:18.107Z,68.20
2019-03-01T23:20:44.339Z,68.40
2019-03-01T23:23:10.589Z,68.30
2019-03-01T23:25:36.809Z,68.40
2019-03-01T23:28:04.018Z,68.30
2019-03-01T23:30:32.169Z,68.60
2019-03-01T23:32:58.409Z,68.70
2019-03-01T23:35:24.727Z,68.80
2019-03-01T23:37:50.980Z,68.50
2019-03-01T23:40:17.201Z,68.50
2019-03-01T23:42:43.417Z,68.00
2019-03-01T23:45:10.057Z,67.40
2019-03-01T23:47:38.245Z,67.20
2019-03-01T23:50:05.554Z,67.10
2019-03-01T23:52:31.792Z,67.10
2019-03-01T23:54:58.119Z,67.50
2019-03-01T23:57:24.334Z,68.40
2019-03-01T23:59:50.571Z,69.10
